Stewart International Airport Newburgh US
ICAO: KSWF
IATA: SWF
Category: Medium
Scheduled Services: Yes

Elevation: 491 ft
TransAlt. 18000 ft.

Airport Communications:
105 AW COMD POST:37.94
ATIS:124.575
NEW YORK CNTR:132.75
GND:121.9
AR OPS:38.5
ARMY OPS:49.75
TWR:121
UNICOM:122.95

KSWF Zoom In..

Runways:

(A) RW 09 length 11817 ft width 150 ft
ILS 110.10 / hdg 92

(B) RW 16 length 6004 ft width 150 ft
---- / hdg 163

(C) RW 27 length 11817 ft width 150 ft
ILS 109.95 / hdg 272

(D) RW 34 length 6004 ft width 150 ft
---- / hdg 343

Location; KSWF
Day. 13 / Time. 12.45 Zulu
* Altimeter: 29.80
* Temperature: 22° c. 71.6°f.
* Wind from: 270° Speed 05 kn.
Dewpoint: 21° c.
Visibility: 10 Statute Miles.
Clouds: Few 1000 ft.
Clouds: Scattered 7000 ft.

KSWF 131245Z 27005KT 10SM FEW010 SCT070 22/21 A2980

Going to: --> -->


Wind From 270°
Speed 05 kn.

 
 
jpsmedia worldairports.se 2020   terms of use